Flight Track Log - Related Links

Times and Time Zones

All times are in EDT time to prevent confusion due to time zone crossing. See the RPA3252 flight status page for this flight to view local times or setup timezone preferences in your user account.

Time Position Orientation Groundspeed Altitude Reporting Facility
EDT Latitude Longitude Course Direction KTS MPH feet Rate Location/Type
Fri 10:29:00 AM 40.4541 -79.8711 99° East  Level Estimated
Fri 10:30:00 AM 40.4414 -79.7507 102° East  Level Estimated
Fri 10:31:00 AM 40.4219 -79.6318 102° East  Level FlightAware Approximate
Fri 10:32:00 AM 40.4092 -79.5115 99° East  Level Estimated
Fri 10:33:00 AM 40.3963 -79.3911 99° East  Level Estimated
Fri 10:34:00 AM 40.3772 -79.2723 102° East  Level FlightAware Approximate
Fri 10:35:00 AM 40.3580 -79.1535 102° East  Level FlightAware Approximate
Fri 10:36:00 AM 40.3452 -79.0332 102° East  Level Estimated
Fri 10:37:00 AM 40.3322 -78.9130 90° East  Level Estimated
Fri 10:38:00 AM 40.3190 -78.7929 90° East  Level Estimated
Fri 10:39:00 AM 40.3058 -78.6728 90° East  Level Estimated
Fri 10:40:00 AM 40.2924 -78.5527 90° East  Level Estimated
Fri 10:41:00 AM 40.2941 -78.4314 89° East  Level FlightAware Approximate
Fri 10:42:00 AM 40.2956 -78.3102 89° East  Level FlightAware Approximate
Fri 10:43:00 AM 40.2970 -78.1889 89° East  Level FlightAware Approximate
Fri 10:44:00 AM 40.2813 -78.0693 90° East  Level Estimated
Fri 10:45:00 AM 40.2840 -77.9481 88° East  Level FlightAware Approximate
Fri 10:46:00 AM 40.2866 -77.8268 88° East  Level FlightAware Approximate
Fri 10:47:00 AM 40.2891 -77.7056 88° East  Level FlightAware Approximate
Fri 10:48:00 AM 40.2914 -77.5843 89° East  Level FlightAware Approximate
Fri 10:49:00 AM 40.2936 -77.4630 89° East  Level FlightAware Approximate
Fri 10:50:00 AM 40.2957 -77.3417 89° East  Level FlightAware Approximate
Fri 10:51:00 AM 40.2732 -77.2241 111° Southeast  Level Estimated
Fri 10:52:00 AM 40.2505 -77.1066 105° East  Level Estimated
Fri 10:53:00 AM 40.2347 -76.9871 100° East  Level FlightAware Approximate
Fri 10:54:00 AM 40.2188 -76.8677 100° East  Level FlightAware Approximate
Fri 10:55:00 AM 40.2027 -76.7484 100° East  Level FlightAware Approximate
Fri 10:56:00 AM 40.1780 -76.6317 114° Southeast  Level Estimated
Fri 10:57:00 AM 40.1531 -76.5151 90° East  Level Estimated
Fri 10:58:00 AM 40.1281 -76.3985 97° East  Level Estimated
Fri 10:59:00 AM 40.1029 -76.2821 99° East  Level Estimated
Fri 11:00:00 AM 40.0777 -76.1657 90° East  Level Estimated
Fri 11:01:00 AM 40.0523 -76.0495 108° East  Level Estimated
Fri 11:02:00 AM 40.0269 -75.9333 90° East  Level Estimated
Fri 11:03:00 AM 40.0013 -75.8172 90° East  Level Estimated
Fri 11:04:00 AM 39.9756 -75.7012 90° East  Level Estimated
Fri 11:05:00 AM 39.9497 -75.5852 90° East  Level Estimated
Fri 11:06:00 AM 39.9238 -75.4694 90° East  Level Estimated
Fri 11:07:00 AM 39.8978 -75.3536 163° South  Level Estimated
Fri 11:08:00 AM 39.8722 -75.2409 70° East  Level Estimated
Fri 11:09:00 AM 39.8722 -75.2409 72° East  Level Estimated
Fri 11:10:00 AM 39.8722 -75.2409 90° East  Level Estimated
Fri 11:11:00 AM 39.8722 -75.2409 247° West  Level Estimated
Fri 11:12:00 AM 39.8722 -75.2409 247° West  Level Estimated
Fri 11:13:00 AM 39.8722 -75.2409 237° Southwest  Level Estimated
Fri 11:14:00 AM 39.8722 -75.2409 247° West  Level Estimated
Fri 11:15:00 AM 39.8722 -75.2409 247° West  Level Estimated
Fri 11:16:00 AM 39.8722 -75.2409 247° West  Level Estimated

Login

Don't have an account? Register now (free) for customized features, flight alerts, and more!